Time;durP1;ratioP1;P1;durP2;ratioP2;P2;SDS_P1;SDS_P2;PMS_P1;PMS_P2;Temp;Humidity;BMP_temperature;BMP_pressure;BME280_temperature;BME280_humidity;BME280_pressure;Samples;Min_cycle;Max_cycle;Signal;HPM_P1;HPM_P2
2023/05/20 00:00:07;;;;;;;0.20;0.20;;;7.40;99.90;;;;;;5032984;28;20028;-75
2023/05/20 00:02:33;;;;;;;0.20;0.20;;;7.40;99.90;;;;;;5033095;28;20394;-75
2023/05/20 00:04:58;;;;;;;0.20;0.20;;;7.30;99.90;;;;;;5036516;28;20026;-75
2023/05/20 00:07:24;;;;;;;0.17;0.17;;;7.20;99.90;;;;;;5036432;28;20501;-75
2023/05/20 00:09:50;;;;;;;0.30;0.30;;;7.20;99.90;;;;;;5036393;28;20410;-75
2023/05/20 00:12:16;;;;;;;0.20;0.20;;;7.10;99.90;;;;;;5036355;28;20018;-75
2023/05/20 00:14:41;;;;;;;0.30;0.30;;;7.10;99.90;;;;;;5036796;28;20075;-75
2023/05/20 00:17:07;;;;;;;0.20;0.20;;;7.00;99.90;;;;;;5036199;28;20022;-75
2023/05/20 00:19:32;;;;;;;0.20;0.20;;;7.00;99.90;;;;;;5036214;28;20017;-75
2023/05/20 00:21:58;;;;;;;0.20;0.20;;;6.90;99.90;;;;;;5036316;28;20075;-75
2023/05/20 00:24:24;;;;;;;0.20;0.20;;;6.80;99.90;;;;;;5036031;28;20044;-75
2023/05/20 00:26:49;;;;;;;0.20;0.20;;;6.80;99.90;;;;;;5036102;28;20025;-75
2023/05/20 00:29:15;;;;;;;0.30;0.30;;;6.70;99.90;;;;;;5034848;28;20034;-75
2023/05/20 00:31:40;;;;;;;0.20;0.20;;;6.70;99.90;;;;;;5035898;28;20026;-75
2023/05/20 00:34:07;;;;;;;0.10;0.10;;;6.70;99.90;;;;;;5035943;28;20026;-75
2023/05/20 00:36:32;;;;;;;0.20;0.20;;;6.70;99.90;;;;;;5035957;28;20498;-75
2023/05/20 00:38:58;;;;;;;0.20;0.20;;;6.70;99.90;;;;;;5035925;28;20060;-75
2023/05/20 00:41:23;;;;;;;0.20;0.20;;;6.80;99.90;;;;;;5035894;28;20021;-75
2023/05/20 00:43:53;;;;;;;0.30;0.30;;;6.70;99.90;;;;;;5035696;28;20026;-75
2023/05/20 00:46:19;;;;;;;0.25;0.25;;;6.70;99.90;;;;;;5034809;28;20032;-75
2023/05/20 00:48:45;;;;;;;0.20;0.20;;;6.70;99.90;;;;;;5035739;28;20033;-75
2023/05/20 00:51:13;;;;;;;0.20;0.20;;;6.70;99.90;;;;;;5036167;28;20029;-75
2023/05/20 00:53:39;;;;;;;0.28;0.28;;;6.70;99.90;;;;;;5035659;28;20442;-75
2023/05/20 00:56:05;;;;;;;0.20;0.20;;;6.60;99.90;;;;;;5035620;28;20056;-75
2023/05/20 00:58:31;;;;;;;0.20;0.20;;;6.60;99.90;;;;;;5022897;28;20026;-75
2023/05/20 01:00:57;;;;;;;0.30;0.30;;;6.60;99.90;;;;;;5022421;28;20029;-74
2023/05/20 01:03:22;;;;;;;0.20;0.20;;;6.60;99.90;;;;;;5034857;28;20025;-75
2023/05/20 01:05:48;;;;;;;0.20;0.20;;;6.60;99.90;;;;;;5035299;28;20087;-75
2023/05/20 01:08:13;;;;;;;0.20;0.20;;;6.60;99.90;;;;;;5033665;28;20475;-74
2023/05/20 01:10:45;;;;;;;0.20;0.20;;;6.50;99.90;;;;;;5034974;28;20026;-75
2023/05/20 01:13:16;;;;;;;0.30;0.30;;;6.50;99.90;;;;;;5035205;28;20100;-75
2023/05/20 01:15:43;;;;;;;0.30;0.30;;;6.50;99.90;;;;;;5035175;28;20029;-75
2023/05/20 01:18:11;;;;;;;0.20;0.20;;;6.40;99.90;;;;;;5033815;28;20060;-74
2023/05/20 01:20:38;;;;;;;0.20;0.20;;;6.40;99.90;;;;;;5035098;28;20033;-75
2023/05/20 01:23:03;;;;;;;0.20;0.20;;;6.40;99.90;;;;;;5034431;28;20030;-75
2023/05/20 01:25:29;;;;;;;0.28;0.28;;;6.40;99.90;;;;;;5034968;28;20021;-75
2023/05/20 01:27:59;;;;;;;0.30;0.30;;;6.50;99.90;;;;;;5034982;28;20036;-75
2023/05/20 01:30:38;;;;;;;0.10;0.10;;;6.50;99.90;;;;;;5034879;28;20057;-75
2023/05/20 01:33:11;;;;;;;0.17;0.17;;;6.50;99.90;;;;;;5034333;28;20013;-75
2023/05/20 01:35:38;;;;;;;0.20;0.20;;;6.60;99.90;;;;;;5034657;28;20033;-75
2023/05/20 01:38:05;;;;;;;0.20;0.20;;;6.50;99.90;;;;;;5034816;28;20537;-75
2023/05/20 01:40:33;;;;;;;0.20;0.20;;;6.60;99.90;;;;;;5034769;28;20155;-75
2023/05/20 01:43:00;;;;;;;0.20;0.20;;;6.60;99.90;;;;;;5034671;28;20068;-75
2023/05/20 01:45:25;;;;;;;0.10;0.10;;;6.50;99.90;;;;;;5034743;28;20410;-75
2023/05/20 01:47:51;;;;;;;0.20;0.20;;;6.60;99.90;;;;;;5034916;28;20029;-75
2023/05/20 01:50:17;;;;;;;0.22;0.22;;;6.50;99.90;;;;;;5034549;28;20044;-75
2023/05/20 01:52:42;;;;;;;0.20;0.20;;;6.50;99.90;;;;;;5034519;28;20033;-74
2023/05/20 01:55:08;;;;;;;0.20;0.20;;;6.40;99.90;;;;;;5034061;28;20479;-75
2023/05/20 01:57:34;;;;;;;0.25;0.25;;;6.40;99.90;;;;;;5034301;28;20029;-75
2023/05/20 01:59:59;;;;;;;0.15;0.15;;;6.30;99.90;;;;;;5032781;28;20060;-75
2023/05/20 02:02:25;;;;;;;0.20;0.20;;;6.30;99.90;;;;;;5033950;28;20033;-75
2023/05/20 02:04:52;;;;;;;0.20;0.20;;;6.30;99.90;;;;;;5034131;28;20025;-75
2023/05/20 02:07:18;;;;;;;0.20;0.20;;;6.30;99.90;;;;;;5033651;28;20064;-75
2023/05/20 02:09:44;;;;;;;0.30;0.30;;;6.20;99.90;;;;;;5033664;28;20057;-75
2023/05/20 02:12:15;;;;;;;0.28;0.28;;;6.20;99.90;;;;;;5034209;28;20419;-75
2023/05/20 02:14:41;;;;;;;0.30;0.30;;;6.20;99.90;;;;;;5033685;28;20021;-74
2023/05/20 02:17:06;;;;;;;0.20;0.20;;;6.10;99.90;;;;;;5033810;28;20025;-75
2023/05/20 02:19:32;;;;;;;0.10;0.10;;;6.10;99.90;;;;;;5033623;28;20083;-75
2023/05/20 02:21:57;;;;;;;0.30;0.30;;;6.10;99.90;;;;;;5033891;28;20027;-75
2023/05/20 02:24:23;;;;;;;0.20;0.20;;;6.10;99.90;;;;;;5033394;28;20407;-74
2023/05/20 02:26:50;;;;;;;0.20;0.20;;;6.10;99.90;;;;;;5032965;28;20093;-75
2023/05/20 02:29:15;;;;;;;0.20;0.20;;;6.00;99.90;;;;;;5033792;28;20556;-75
2023/05/20 02:31:41;;;;;;;0.20;0.20;;;6.10;99.90;;;;;;5033485;28;20037;-75
2023/05/20 02:34:07;;;;;;;0.20;0.20;;;6.20;99.90;;;;;;5032425;28;20028;-75
2023/05/20 02:36:32;;;;;;;0.20;0.20;;;6.10;99.90;;;;;;5033560;28;20033;-75
2023/05/20 02:38:59;;;;;;;0.20;0.20;;;6.10;99.90;;;;;;5033889;28;20057;-75
2023/05/20 02:41:25;;;;;;;0.20;0.20;;;6.20;99.90;;;;;;5032227;28;20037;-75
2023/05/20 02:43:50;;;;;;;0.20;0.20;;;6.20;99.90;;;;;;5033467;28;20127;-75
2023/05/20 02:46:18;;;;;;;0.20;0.20;;;6.20;99.90;;;;;;5033352;28;20029;-75
2023/05/20 02:48:44;;;;;;;0.20;0.20;;;6.20;99.90;;;;;;5033553;28;20109;-75
2023/05/20 02:51:10;;;;;;;0.20;0.20;;;6.20;99.90;;;;;;5033204;28;20105;-75
2023/05/20 02:53:35;;;;;;;0.20;0.20;;;6.10;99.90;;;;;;5033522;28;20029;-75
2023/05/20 02:56:03;;;;;;;0.20;0.20;;;6.10;99.90;;;;;;5033279;28;20017;-75
2023/05/20 02:58:28;;;;;;;0.20;0.20;;;6.00;99.90;;;;;;5032939;28;20104;-75
2023/05/20 03:00:56;;;;;;;0.28;0.28;;;6.00;99.90;;;;;;5033064;28;20061;-75
2023/05/20 03:03:24;;;;;;;0.20;0.20;;;5.90;99.90;;;;;;5019807;28;20036;-75
2023/05/20 03:05:50;;;;;;;0.25;0.25;;;5.80;99.90;;;;;;5028466;28;20377;-75
2023/05/20 03:08:19;;;;;;;0.30;0.30;;;5.80;99.90;;;;;;5028895;28;20037;-75
2023/05/20 03:10:45;;;;;;;0.20;0.20;;;5.80;99.90;;;;;;5033062;28;20029;-75
2023/05/20 03:13:10;;;;;;;0.20;0.20;;;5.70;99.90;;;;;;5032914;28;20094;-75
2023/05/20 03:15:37;;;;;;;0.10;0.10;;;5.70;99.90;;;;;;5031897;28;20021;-75
2023/05/20 03:18:03;;;;;;;0.20;0.20;;;5.70;99.90;;;;;;5032965;28;20018;-75
2023/05/20 03:20:31;;;;;;;0.20;0.20;;;5.70;99.90;;;;;;5032843;28;20034;-75
2023/05/20 03:22:57;;;;;;;0.20;0.20;;;5.60;99.90;;;;;;5032771;28;20025;-75
2023/05/20 03:25:23;;;;;;;0.20;0.20;;;5.60;99.90;;;;;;5033348;28;20076;-75
2023/05/20 03:27:49;;;;;;;0.30;0.30;;;5.60;99.90;;;;;;5032905;28;20399;-75
2023/05/20 03:30:15;;;;;;;0.20;0.20;;;5.60;99.90;;;;;;5032953;28;20026;-75
2023/05/20 03:32:41;;;;;;;0.30;0.30;;;5.60;99.90;;;;;;5031558;28;20056;-75
2023/05/20 03:35:08;;;;;;;0.20;0.20;;;5.60;99.90;;;;;;5032909;28;20056;-75
2023/05/20 03:37:33;;;;;;;0.20;0.20;;;5.60;99.90;;;;;;5032375;28;20029;-74
2023/05/20 03:39:59;;;;;;;0.20;0.20;;;5.60;99.90;;;;;;5036666;28;20021;-75
2023/05/20 03:42:24;;;;;;;0.20;0.20;;;5.60;99.90;;;;;;5035603;28;20025;-75
2023/05/20 03:44:50;;;;;;;0.20;0.20;;;5.60;99.90;;;;;;5036740;28;20032;-75
2023/05/20 03:47:15;;;;;;;0.20;0.20;;;5.60;99.90;;;;;;5036818;28;20044;-75
2023/05/20 03:49:41;;;;;;;0.30;0.30;;;5.50;99.90;;;;;;5036742;28;20052;-75
2023/05/20 03:52:07;;;;;;;0.20;0.20;;;5.50;99.90;;;;;;5036770;28;20478;-75
2023/05/20 03:54:34;;;;;;;0.30;0.30;;;5.50;99.90;;;;;;5036640;28;20018;-75
2023/05/20 03:56:59;;;;;;;0.20;0.20;;;5.50;99.90;;;;;;5036742;28;20013;-75
2023/05/20 03:59:26;;;;;;;0.30;0.30;;;5.60;99.90;;;;;;5035390;28;20032;-75
2023/05/20 04:01:52;;;;;;;0.30;0.30;;;5.60;99.90;;;;;;5036601;28;20029;-75
2023/05/20 04:04:17;;;;;;;0.20;0.20;;;5.60;99.90;;;;;;5036594;28;20025;-75
2023/05/20 04:06:43;;;;;;;0.20;0.20;;;5.70;99.90;;;;;;5037108;28;20109;-75
2023/05/20 04:09:08;;;;;;;0.20;0.20;;;5.70;99.90;;;;;;5036434;28;20030;-75
2023/05/20 04:11:34;;;;;;;0.20;0.20;;;5.70;99.90;;;;;;5036406;28;20036;-75
2023/05/20 04:14:00;;;;;;;0.20;0.20;;;5.70;99.90;;;;;;5036417;28;20402;-75
2023/05/20 04:16:25;;;;;;;0.30;0.30;;;5.70;99.90;;;;;;5036278;28;20104;-75
2023/05/20 04:18:51;;;;;;;0.28;0.28;;;5.70;99.90;;;;;;5036343;28;20036;-75
2023/05/20 04:21:18;;;;;;;0.20;0.20;;;5.80;99.90;;;;;;5036243;28;20096;-75
2023/05/20 04:23:43;;;;;;;0.20;0.20;;;5.80;99.90;;;;;;5035144;28;20041;-75
2023/05/20 04:26:09;;;;;;;0.20;0.20;;;5.80;99.90;;;;;;5036261;28;20034;-75
2023/05/20 04:28:36;;;;;;;0.28;0.28;;;5.90;99.90;;;;;;5036181;28;20025;-75
2023/05/20 04:31:03;;;;;;;0.20;0.20;;;6.00;99.90;;;;;;5036107;28;20017;-75
2023/05/20 04:33:31;;;;;;;0.30;0.30;;;6.10;99.90;;;;;;5036197;28;20045;-75
2023/05/20 04:35:57;;;;;;;0.20;0.20;;;6.20;99.90;;;;;;5034676;28;20025;-75
2023/05/20 04:38:31;;;;;;;0.25;0.25;;;6.30;99.90;;;;;;5034710;28;20168;-75
2023/05/20 04:40:57;;;;;;;0.20;0.20;;;6.40;99.90;;;;;;5036239;28;20056;-75
2023/05/20 04:43:24;;;;;;;0.20;0.20;;;6.50;99.90;;;;;;5035838;28;20088;-75
2023/05/20 04:45:49;;;;;;;0.20;0.20;;;6.60;99.90;;;;;;5035779;28;20029;-75
2023/05/20 04:48:15;;;;;;;0.20;0.20;;;6.70;99.90;;;;;;5035507;28;20157;-75
2023/05/20 04:50:40;;;;;;;0.20;0.20;;;6.90;99.90;;;;;;5036084;28;20026;-75
2023/05/20 04:53:07;;;;;;;0.17;0.17;;;7.00;99.90;;;;;;5035610;28;20041;-75
2023/05/20 04:55:33;;;;;;;0.20;0.20;;;7.10;99.90;;;;;;5035645;28;20018;-75
2023/05/20 04:57:58;;;;;;;0.20;0.20;;;7.30;99.90;;;;;;5035613;28;20537;-75
2023/05/20 05:00:24;;;;;;;0.20;0.20;;;7.50;99.90;;;;;;5035879;28;20087;-74
2023/05/20 05:02:49;;;;;;;0.20;0.20;;;7.70;99.90;;;;;;5034140;28;20475;-75
2023/05/20 05:05:15;;;;;;;0.20;0.20;;;7.90;99.90;;;;;;5035446;28;20113;-75
2023/05/20 05:07:40;;;;;;;0.22;0.22;;;8.10;99.90;;;;;;5035458;28;20030;-75
2023/05/20 05:10:06;;;;;;;0.22;0.22;;;8.20;99.90;;;;;;5034074;28;20067;-75
2023/05/20 05:12:32;;;;;;;0.20;0.20;;;8.40;99.90;;;;;;5035357;28;20018;-75
2023/05/20 05:14:58;;;;;;;0.20;0.20;;;8.60;99.90;;;;;;5035259;28;20482;-75
2023/05/20 05:17:24;;;;;;;0.20;0.20;;;8.80;99.90;;;;;;5035224;28;20032;-76
2023/05/20 05:19:49;;;;;;;0.20;0.20;;;8.90;99.90;;;;;;5035132;28;20053;-75
2023/05/20 05:22:15;;;;;;;0.20;0.20;;;9.00;99.90;;;;;;5035024;28;20080;-75
2023/05/20 05:24:40;;;;;;;0.13;0.13;;;9.20;99.90;;;;;;5034945;28;20040;-75
2023/05/20 05:27:06;;;;;;;0.20;0.20;;;9.30;99.90;;;;;;5033724;28;20530;-75
2023/05/20 05:29:31;;;;;;;0.20;0.20;;;9.40;99.90;;;;;;5034996;28;20096;-74
2023/05/20 05:31:57;;;;;;;0.20;0.20;;;9.60;99.90;;;;;;5034864;28;20545;-75
2023/05/20 05:34:22;;;;;;;0.20;0.20;;;9.80;99.90;;;;;;5034868;28;20109;-75
2023/05/20 05:36:48;;;;;;;0.20;0.20;;;9.90;99.90;;;;;;5035122;28;20024;-75
2023/05/20 05:39:13;;;;;;;0.20;0.20;;;10.10;99.90;;;;;;5034774;28;20026;-76
2023/05/20 05:41:39;;;;;;;0.17;0.17;;;10.30;99.90;;;;;;5034728;28;20075;-75
2023/05/20 05:44:05;;;;;;;0.20;0.20;;;10.40;99.90;;;;;;5033677;28;20117;-75
2023/05/20 05:46:31;;;;;;;0.17;0.17;;;10.60;99.90;;;;;;5034682;28;20032;-75
2023/05/20 05:48:57;;;;;;;0.20;0.20;;;10.70;99.90;;;;;;5034630;28;20025;-75
2023/05/20 05:51:24;;;;;;;0.20;0.20;;;10.90;99.90;;;;;;5034637;28;20395;-75
2023/05/20 05:53:49;;;;;;;0.20;0.20;;;11.10;99.90;;;;;;5033143;28;20022;-76
2023/05/20 05:56:15;;;;;;;0.20;0.20;;;11.20;99.90;;;;;;5033233;28;20028;-75
2023/05/20 05:58:41;;;;;;;0.20;0.20;;;11.40;99.90;;;;;;5034398;28;20028;-75
2023/05/20 06:01:06;;;;;;;0.20;0.20;;;11.60;99.90;;;;;;5033511;28;20445;-75
2023/05/20 06:03:32;;;;;;;0.28;0.28;;;11.70;99.90;;;;;;5034378;28;20418;-74
2023/05/20 06:05:58;;;;;;;0.20;0.20;;;11.60;99.90;;;;;;5034337;28;20030;-76
2023/05/20 06:08:23;;;;;;;0.13;0.13;;;11.50;99.90;;;;;;5034466;28;20021;-76
2023/05/20 06:10:49;;;;;;;0.20;0.20;;;11.40;99.90;;;;;;5034665;28;20030;-76
2023/05/20 06:13:15;;;;;;;0.20;0.20;;;11.40;99.90;;;;;;5034048;28;20022;-75
2023/05/20 06:15:40;;;;;;;0.22;0.22;;;11.40;99.90;;;;;;5034126;28;20024;-75
2023/05/20 06:18:06;;;;;;;0.20;0.20;;;11.30;99.90;;;;;;5034110;28;20022;-75
2023/05/20 06:20:32;;;;;;;0.28;0.28;;;11.30;99.90;;;;;;5033980;28;20083;-75
2023/05/20 06:22:57;;;;;;;0.10;0.10;;;11.30;99.90;;;;;;5034246;28;20033;-75
2023/05/20 06:25:23;;;;;;;0.20;0.20;;;11.40;99.90;;;;;;5033971;28;20025;-75
2023/05/20 06:27:49;;;;;;;0.20;0.20;;;11.50;99.90;;;;;;5033917;28;20442;-74
2023/05/20 06:30:15;;;;;;;0.20;0.20;;;11.70;99.90;;;;;;5033857;28;20097;-74
2023/05/20 06:32:40;;;;;;;0.10;0.10;;;11.90;99.90;;;;;;5033744;28;20013;-74
2023/05/20 06:35:07;;;;;;;0.20;0.20;;;12.20;99.90;;;;;;5032412;28;20021;-75
2023/05/20 06:37:32;;;;;;;0.20;0.20;;;12.50;99.90;;;;;;5033721;28;20021;-74
2023/05/20 06:39:58;;;;;;;0.10;0.10;;;12.80;99.90;;;;;;5033764;28;20032;-74
2023/05/20 06:42:23;;;;;;;0.20;0.20;;;13.30;99.90;;;;;;5034135;28;20025;-74
2023/05/20 06:44:49;;;;;;;0.20;0.20;;;13.60;99.90;;;;;;5032193;28;20028;-74
2023/05/20 06:47:16;;;;;;;0.20;0.20;;;13.90;99.90;;;;;;5033543;28;20021;-74
2023/05/20 06:49:42;;;;;;;0.20;0.20;;;14.10;99.90;;;;;;5033419;28;20033;-74
2023/05/20 06:52:08;;;;;;;0.20;0.20;;;14.40;99.90;;;;;;5032237;28;20471;-74
2023/05/20 06:54:38;;;;;;;0.20;0.20;;;14.70;99.90;;;;;;5022882;28;20037;-74
2023/05/20 06:57:05;;;;;;;0.10;0.10;;;14.90;99.90;;;;;;5014076;28;20460;-74
2023/05/20 06:59:30;;;;;;;0.10;0.10;;;14.90;99.90;;;;;;5031172;28;20164;-74
2023/05/20 07:01:56;;;;;;;0.20;0.20;;;14.90;99.90;;;;;;5032706;28;20502;-74
2023/05/20 07:04:21;;;;;;;0.10;0.10;;;15.00;99.90;;;;;;5031642;28;20029;-74
2023/05/20 07:06:46;;;;;;;0.10;0.10;;;15.00;99.90;;;;;;5033170;28;20033;-75
2023/05/20 07:09:12;;;;;;;0.20;0.20;;;15.10;99.90;;;;;;5009001;28;20039;-74
2023/05/20 07:11:38;;;;;;;0.20;0.20;;;15.30;99.90;;;;;;5007299;28;20444;-77
2023/05/20 07:14:04;;;;;;;0.10;0.10;;;15.40;99.90;;;;;;4994508;28;20026;-77
2023/05/20 07:16:31;;;;;;;0.20;0.20;;;15.50;99.90;;;;;;4996162;28;20034;-77
2023/05/20 07:18:56;;;;;;;0.20;0.20;;;15.60;99.90;;;;;;4996321;28;20053;-78
2023/05/20 07:21:22;;;;;;;0.20;0.20;;;15.70;99.90;;;;;;4995947;28;20062;-78
2023/05/20 07:23:48;;;;;;;0.10;0.10;;;15.80;99.90;;;;;;5012952;28;20033;-78
2023/05/20 07:26:13;;;;;;;0.10;0.10;;;15.90;99.90;;;;;;5009606;28;20081;-79
2023/05/20 07:28:39;;;;;;;0.10;0.10;;;16.10;99.90;;;;;;4998327;28;20504;-77
2023/05/20 07:31:04;;;;;;;0.10;0.10;;;16.20;99.90;;;;;;4997732;28;20030;-79
2023/05/20 07:33:30;;;;;;;0.10;0.10;;;16.20;99.90;;;;;;4996741;28;20407;-79
2023/05/20 07:35:56;;;;;;;0.10;0.10;;;16.20;99.90;;;;;;4996171;28;20034;-77
2023/05/20 07:38:21;;;;;;;0.10;0.10;;;16.30;99.90;;;;;;5016381;28;20368;-77
2023/05/20 07:40:47;;;;;;;0.10;0.10;;;16.40;99.90;;;;;;5034596;28;20471;-78
2023/05/20 07:43:13;;;;;;;0.10;0.10;;;16.60;99.90;;;;;;5034567;28;20080;-77
2023/05/20 07:45:39;;;;;;;0.10;0.10;;;16.80;99.90;;;;;;5034388;28;20084;-78
2023/05/20 07:48:05;;;;;;;0.20;0.20;;;16.90;99.90;;;;;;5034703;28;20026;-78
2023/05/20 07:50:30;;;;;;;0.15;0.15;;;17.00;99.90;;;;;;5034786;28;20037;-77
2023/05/20 07:52:56;;;;;;;0.10;0.10;;;17.20;99.90;;;;;;5025738;28;20489;-77
2023/05/20 07:55:21;;;;;;;0.20;0.20;;;17.30;99.90;;;;;;5013060;28;20030;-77
2023/05/20 07:57:47;;;;;;;0.10;0.10;;;17.40;99.90;;;;;;5013635;28;20480;-77
2023/05/20 08:00:13;;;;;;;0.10;0.10;;;17.40;99.90;;;;;;5032760;28;20064;-77
2023/05/20 08:02:38;;;;;;;0.10;0.10;;;17.40;99.90;;;;;;5032629;28;20095;-77
2023/05/20 08:05:05;;;;;;;0.10;0.10;;;17.60;99.90;;;;;;5032698;28;20029;-77
2023/05/20 08:07:30;;;;;;;0.20;0.20;;;17.80;99.90;;;;;;5031361;28;20021;-77
2023/05/20 08:09:56;;;;;;;0.20;0.20;;;18.00;99.90;;;;;;5032574;28;20483;-77
2023/05/20 08:12:22;;;;;;;0.10;0.10;;;18.20;99.90;;;;;;5032470;28;20029;-77
2023/05/20 08:14:47;;;;;;;0.10;0.10;;;18.10;99.90;;;;;;5032474;28;20044;-77
2023/05/20 08:17:13;;;;;;;0.10;0.10;;;18.20;99.90;;;;;;5032856;28;20035;-77
2023/05/20 08:19:38;;;;;;;0.10;0.10;;;18.30;99.90;;;;;;5032737;28;20391;-77
2023/05/20 08:22:05;;;;;;;0.10;0.10;;;18.30;99.90;;;;;;5032916;28;20037;-77
2023/05/20 08:24:30;;;;;;;0.20;0.20;;;18.40;99.90;;;;;;5034390;28;20036;-78
2023/05/20 08:26:56;;;;;;;0.10;0.10;;;18.60;99.90;;;;;;5034591;28;20042;-74
2023/05/20 08:29:22;;;;;;;0.10;0.10;;;18.60;99.90;;;;;;5035962;28;20112;-76
2023/05/20 08:31:48;;;;;;;0.10;0.10;;;18.60;99.90;;;;;;5034749;28;20071;-76
2023/05/20 08:34:13;;;;;;;0.10;0.10;;;18.80;99.90;;;;;;5036071;28;20067;-77
2023/05/20 08:36:39;;;;;;;0.10;0.10;;;18.80;99.90;;;;;;5036767;28;20026;-77
2023/05/20 08:39:05;;;;;;;0.10;0.10;;;19.00;99.90;;;;;;5036063;28;20025;-77
2023/05/20 08:41:30;;;;;;;0.10;0.10;;;19.30;99.90;;;;;;5036115;28;20427;-78
2023/05/20 08:43:58;;;;;;;0.10;0.10;;;19.40;99.90;;;;;;5036450;28;20120;-77
2023/05/20 08:46:24;;;;;;;0.17;0.17;;;19.30;99.90;;;;;;5036129;28;20033;-77
2023/05/20 08:48:50;;;;;;;0.10;0.10;;;19.30;99.90;;;;;;5035967;28;20053;-77
2023/05/20 08:51:19;;;;;;;0.10;0.10;;;19.40;99.90;;;;;;5035679;28;20052;-77
2023/05/20 08:53:45;;;;;;;0.20;0.20;;;19.70;99.90;;;;;;5034489;28;20067;-76
2023/05/20 08:56:11;;;;;;;0.10;0.10;;;19.60;99.90;;;;;;5035551;28;20025;-77
2023/05/20 08:58:37;;;;;;;0.10;0.10;;;19.50;99.90;;;;;;5035685;28;20095;-77
2023/05/20 09:01:03;;;;;;;0.10;0.10;;;19.40;99.90;;;;;;5035510;28;20475;-77
2023/05/20 09:03:29;;;;;;;0.10;0.10;;;19.20;99.90;;;;;;5035494;28;20479;-77
2023/05/20 09:06:06;;;;;;;0.10;0.10;;;19.20;99.90;;;;;;5035624;28;20124;-77
2023/05/20 09:08:33;;;;;;;0.10;0.10;;;19.40;99.90;;;;;;5035871;28;20032;-77
2023/05/20 09:10:59;;;;;;;0.10;0.10;;;19.60;99.90;;;;;;5035424;28;20026;-77
2023/05/20 09:13:26;;;;;;;0.10;0.10;;;19.80;99.90;;;;;;5035570;28;20095;-77
2023/05/20 09:15:52;;;;;;;0.00;0.00;;;20.00;99.90;;;;;;5035594;28;20036;-76
2023/05/20 09:18:17;;;;;;;0.10;0.10;;;19.90;99.90;;;;;;5035249;28;20394;-75
2023/05/20 09:20:46;;;;;;;0.00;0.00;;;20.20;99.90;;;;;;5035160;28;20077;-75
2023/05/20 09:23:11;;;;;;;0.10;0.10;;;20.10;99.90;;;;;;5035142;28;20107;-74
2023/05/20 09:25:37;;;;;;;0.10;0.10;;;20.00;99.90;;;;;;5035388;28;20025;-74
2023/05/20 09:28:08;;;;;;;0.10;0.10;;;20.00;99.90;;;;;;5035506;28;20062;-76
2023/05/20 09:30:34;;;;;;;0.10;0.10;;;20.20;99.90;;;;;;5033869;28;20027;-77
2023/05/20 09:33:02;;;;;;;0.10;0.10;;;20.20;99.90;;;;;;5035229;28;20045;-76
2023/05/20 09:35:28;;;;;;;0.10;0.10;;;20.20;99.90;;;;;;5034860;28;20507;-77
2023/05/20 09:37:56;;;;;;;0.10;0.10;;;20.30;99.90;;;;;;5035111;28;20083;-76
2023/05/20 09:40:27;;;;;;;0.10;0.10;;;20.40;99.90;;;;;;5035305;28;20030;-76
2023/05/20 09:43:00;;;;;;;0.10;0.10;;;20.50;99.90;;;;;;5033808;28;20112;-76
2023/05/20 09:45:26;;;;;;;0.10;0.10;;;20.60;99.90;;;;;;5035118;28;20104;-74
2023/05/20 09:47:52;;;;;;;0.10;0.10;;;20.70;99.90;;;;;;5034971;28;20124;-76
2023/05/20 09:50:22;;;;;;;0.10;0.10;;;20.50;99.90;;;;;;5034621;28;20021;-76
2023/05/20 09:52:48;;;;;;;0.10;0.10;;;20.50;99.90;;;;;;5033242;28;20109;-76
2023/05/20 09:55:16;;;;;;;0.10;0.10;;;20.60;99.90;;;;;;5034901;28;20414;-76
2023/05/20 09:57:42;;;;;;;0.10;0.10;;;20.70;99.90;;;;;;5034521;28;20049;-76
2023/05/20 10:00:07;;;;;;;0.10;0.10;;;20.80;99.90;;;;;;5034441;28;20057;-76
2023/05/20 10:02:34;;;;;;;0.03;0.03;;;20.90;99.90;;;;;;5033071;28;20449;-76
2023/05/20 10:05:04;;;;;;;0.10;0.10;;;21.00;99.90;;;;;;5033144;28;20033;-76
2023/05/20 10:07:55;;;;;;;0.10;0.10;;;21.00;99.90;;;;;;5034495;28;20502;-76
2023/05/20 10:10:36;;;;;;;0.10;0.10;;;21.20;99.90;;;;;;5034808;28;20108;-77
2023/05/20 10:13:26;;;;;;;0.10;0.10;;;21.40;99.90;;;;;;5034435;28;20048;-76
2023/05/20 10:16:28;;;;;;;0.10;0.10;;;21.50;99.90;;;;;;5034143;28;20021;-78
2023/05/20 10:19:10;;;;;;;0.10;0.10;;;21.70;99.90;;;;;;5034157;28;20040;-77
2023/05/20 10:21:36;;;;;;;0.10;0.10;;;21.80;99.90;;;;;;5034120;28;20055;-77
2023/05/20 10:24:06;;;;;;;0.10;0.10;;;21.90;99.90;;;;;;5033800;28;20060;-76
2023/05/20 10:26:39;;;;;;;0.10;0.10;;;22.00;99.90;;;;;;5034000;28;20509;-76
2023/05/20 10:29:19;;;;;;;0.00;0.00;;;22.20;99.90;;;;;;5033974;28;20025;-76
2023/05/20 10:31:48;;;;;;;0.10;0.10;;;22.20;99.90;;;;;;5029920;28;20394;-74
2023/05/20 10:34:16;;;;;;;0.00;0.00;;;22.10;99.90;;;;;;5010913;28;20409;-76
2023/05/20 10:36:45;;;;;;;0.10;0.10;;;22.30;99.90;;;;;;5014132;28;20049;-76
2023/05/20 10:39:16;;;;;;;0.10;0.10;;;22.50;99.90;;;;;;5013647;28;20105;-76
2023/05/20 10:41:42;;;;;;;0.00;0.00;;;22.50;99.90;;;;;;5027451;28;20080;-76
2023/05/20 10:44:07;;;;;;;0.10;0.10;;;22.50;99.90;;;;;;5033188;28;20025;-76
2023/05/20 10:46:34;;;;;;;0.03;0.03;;;22.70;99.90;;;;;;5033154;28;20026;-74
2023/05/20 10:49:01;;;;;;;0.10;0.10;;;22.60;99.90;;;;;;5033555;28;20553;-76
2023/05/20 10:51:28;;;;;;;0.00;0.00;;;22.10;99.90;;;;;;5033463;28;20483;-76
2023/05/20 10:53:54;;;;;;;0.10;0.10;;;22.20;99.90;;;;;;5033131;28;20471;-76
2023/05/20 10:56:22;;;;;;;0.10;0.10;;;22.30;99.90;;;;;;5033647;28;20029;-76
2023/05/20 10:58:49;;;;;;;0.00;0.00;;;22.30;99.90;;;;;;5033125;28;20533;-76
2023/05/20 11:01:15;;;;;;;0.10;0.10;;;22.60;99.90;;;;;;5033418;28;20030;-76
2023/05/20 11:03:42;;;;;;;0.08;0.08;;;22.70;99.90;;;;;;5033116;28;20033;-76
2023/05/20 11:06:12;;;;;;;0.00;0.00;;;22.80;99.90;;;;;;5033172;28;20025;-76
2023/05/20 11:08:38;;;;;;;0.00;0.00;;;22.90;99.90;;;;;;5006960;28;20395;-75
2023/05/20 11:11:03;;;;;;;0.08;0.08;;;22.90;99.90;;;;;;5032751;28;20021;-74
2023/05/20 11:13:30;;;;;;;0.05;0.05;;;22.90;99.90;;;;;;5032486;28;20494;-76
2023/05/20 11:15:57;;;;;;;0.10;0.10;;;23.10;99.90;;;;;;5033119;28;20088;-76
2023/05/20 11:18:22;;;;;;;0.10;0.10;;;23.20;99.90;;;;;;5033458;28;20482;-76
2023/05/20 11:20:48;;;;;;;0.10;0.10;;;23.50;99.90;;;;;;5032895;28;20029;-76
2023/05/20 11:23:14;;;;;;;0.10;0.10;;;23.50;99.90;;;;;;5033081;28;20495;-77
2023/05/20 11:25:40;;;;;;;0.00;0.00;;;23.70;99.90;;;;;;5033143;28;20501;-76
2023/05/20 11:28:13;;;;;;;0.00;0.00;;;23.90;99.90;;;;;;5033165;28;20065;-76
2023/05/20 11:30:40;;;;;;;0.00;0.00;;;23.50;99.90;;;;;;5032945;28;20021;-77
2023/05/20 11:33:05;;;;;;;0.10;0.10;;;22.40;99.90;;;;;;5032489;28;20021;-77
2023/05/20 11:35:32;;;;;;;0.10;0.10;;;21.60;99.90;;;;;;5032926;28;20108;-76
2023/05/20 11:38:02;;;;;;;0.10;0.10;;;21.50;99.90;;;;;;5025453;28;20022;-76
2023/05/20 11:40:28;;;;;;;0.03;0.03;;;21.60;99.90;;;;;;5013498;28;20113;-76
2023/05/20 11:42:56;;;;;;;0.10;0.10;;;22.00;99.90;;;;;;5013468;28;20034;-76
2023/05/20 11:45:22;;;;;;;0.10;0.10;;;22.60;99.90;;;;;;5013414;28;20097;-76
2023/05/20 11:48:04;;;;;;;0.00;0.00;;;23.20;99.90;;;;;;5013040;28;20029;-77
2023/05/20 11:50:41;;;;;;;0.00;0.00;;;23.60;99.90;;;;;;4993689;28;20048;-75
2023/05/20 11:53:09;;;;;;;0.00;0.00;;;24.10;99.90;;;;;;4993648;28;20033;-76
2023/05/20 11:55:47;;;;;;;0.00;0.00;;;24.40;99.90;;;;;;5014114;28;20075;-76
2023/05/20 11:58:21;;;;;;;0.00;0.00;;;24.40;99.90;;;;;;5032232;28;20026;-75
2023/05/20 12:00:47;;;;;;;0.05;0.05;;;23.60;99.90;;;;;;5036683;28;20112;-76
2023/05/20 12:03:13;;;;;;;0.08;0.08;;;22.40;99.90;;;;;;5025657;28;20041;-76
2023/05/20 12:05:39;;;;;;;0.00;0.00;;;21.30;99.90;;;;;;5013535;28;20025;-75
2023/05/20 12:08:05;;;;;;;0.10;0.10;;;20.80;99.90;;;;;;5010835;28;20504;-75
2023/05/20 12:10:31;;;;;;;0.00;0.00;;;21.50;99.90;;;;;;5013708;28;20500;-73
2023/05/20 12:12:57;;;;;;;0.10;0.10;;;22.50;99.90;;;;;;5018982;28;20021;-76
2023/05/20 12:15:23;;;;;;;0.00;0.00;;;23.30;99.90;;;;;;5016356;28;20072;-76
2023/05/20 12:17:51;;;;;;;0.00;0.00;;;23.80;99.90;;;;;;5017977;28;20018;-74
2023/05/20 12:20:21;;;;;;;0.00;0.00;;;23.90;99.90;;;;;;5011124;28;20483;-74
2023/05/20 12:22:47;;;;;;;0.03;0.03;;;23.50;99.90;;;;;;5016195;28;20042;-73
2023/05/20 12:25:18;;;;;;;0.00;0.00;;;23.50;99.90;;;;;;5018662;28;20395;-74
2023/05/20 12:27:46;;;;;;;0.00;0.00;;;23.70;99.90;;;;;;5014801;28;20419;-76
2023/05/20 12:30:15;;;;;;;0.00;0.00;;;24.00;99.90;;;;;;5020631;28;20029;-75
2023/05/20 12:32:42;;;;;;;0.00;0.00;;;24.30;99.90;;;;;;5020540;28;20081;-74
2023/05/20 12:35:08;;;;;;;0.00;0.00;;;23.60;99.90;;;;;;5014833;28;20036;-74
2023/05/20 12:37:33;;;;;;;0.10;0.10;;;22.60;99.90;;;;;;5011078;28;20035;-74
2023/05/20 12:39:59;;;;;;;0.00;0.00;;;21.80;99.90;;;;;;5008640;28;20030;-74
2023/05/20 12:42:25;;;;;;;0.05;0.05;;;21.80;99.90;;;;;;5019308;28;20036;-74
2023/05/20 12:44:50;;;;;;;0.08;0.08;;;22.40;99.90;;;;;;5018788;28;20106;-74
2023/05/20 12:47:16;;;;;;;0.00;0.00;;;22.90;99.90;;;;;;5016190;28;20026;-75